createdAt,value
2017-07-07T00:00:19.801Z,0
2017-07-07T00:01:19.774Z,0
2017-07-07T00:02:19.754Z,0
2017-07-07T00:03:19.428Z,0
2017-07-07T00:04:19.711Z,0
2017-07-07T00:05:19.695Z,0
2017-07-07T00:06:19.678Z,0
2017-07-07T00:07:19.660Z,0
2017-07-07T00:08:19.640Z,0
2017-07-07T00:09:19.320Z,0
2017-07-07T00:10:19.498Z,0
2017-07-07T00:11:19.581Z,0
2017-07-07T00:12:19.267Z,0
2017-07-07T00:13:19.542Z,0
2017-07-07T00:14:19.527Z,0
2017-07-07T00:15:19.575Z,0
2017-07-07T00:16:19.242Z,0
2017-07-07T00:17:19.467Z,0
2017-07-07T00:18:19.143Z,0
2017-07-07T00:19:19.446Z,0
2017-07-07T00:20:19.416Z,0
2017-07-07T00:21:19.091Z,0
2017-07-07T00:22:18.762Z,0
2017-07-07T00:23:19.050Z,0
2017-07-07T00:24:19.033Z,0
2017-07-07T00:25:19.323Z,0
2017-07-07T00:26:18.998Z,0
2017-07-07T00:27:19.279Z,0
2017-07-07T00:28:19.257Z,0
2017-07-07T00:29:18.671Z,0
2017-07-07T00:30:19.225Z,0
2017-07-07T00:31:19.202Z,0
2017-07-07T00:32:18.880Z,0
2017-07-07T00:33:19.172Z,0
2017-07-07T00:34:19.160Z,0
2017-07-07T00:35:19.132Z,0
2017-07-07T00:36:18.808Z,0
2017-07-07T00:37:19.094Z,0
2017-07-07T00:38:18.461Z,0
2017-07-07T00:39:19.118Z,0
2017-07-07T00:40:18.733Z,0
2017-07-07T00:41:18.710Z,0
2017-07-07T00:42:19.004Z,0
2017-07-07T00:43:18.670Z,0
2017-07-07T00:44:18.652Z,0
2017-07-07T00:45:18.940Z,0
2017-07-07T00:46:18.307Z,0
2017-07-07T00:47:18.903Z,0
2017-07-07T00:48:18.883Z,0
2017-07-07T00:49:18.871Z,0
2017-07-07T00:50:18.232Z,0
2017-07-07T00:51:18.828Z,0
2017-07-07T00:52:18.197Z,0
2017-07-07T00:53:18.790Z,0
2017-07-07T00:54:18.464Z,0
2017-07-07T00:55:18.755Z,0
2017-07-07T00:56:18.731Z,0
2017-07-07T00:57:18.719Z,0
2017-07-07T00:58:18.392Z,0
2017-07-07T00:59:18.678Z,0
2017-07-07T01:00:18.674Z,0
2017-07-07T01:01:18.340Z,0
2017-07-07T01:02:18.628Z,0
2017-07-07T01:03:18.297Z,0
2017-07-07T01:04:18.274Z,0
2017-07-07T01:05:18.561Z,0
2017-07-07T01:06:18.541Z,0
2017-07-07T01:07:17.913Z,0
2017-07-07T01:08:17.897Z,0
2017-07-07T01:09:18.174Z,0
2017-07-07T01:10:18.169Z,0
2017-07-07T01:11:18.289Z,0
2017-07-07T01:12:18.426Z,0
2017-07-07T01:13:17.800Z,0
2017-07-07T01:14:18.396Z,0
2017-07-07T01:15:18.061Z,0
2017-07-07T01:16:18.044Z,0
2017-07-07T01:17:18.028Z,0
2017-07-07T01:18:18.027Z,0
2017-07-07T01:19:17.683Z,0
2017-07-07T01:20:17.966Z,0
2017-07-07T01:21:17.950Z,0
2017-07-07T01:22:17.926Z,0
2017-07-07T01:23:17.643Z,0
2017-07-07T01:24:18.194Z,0
2017-07-07T01:25:17.870Z,0
2017-07-07T01:26:17.548Z,0
2017-07-07T01:27:17.834Z,0
2017-07-07T01:28:17.819Z,0
2017-07-07T01:29:17.490Z,0
2017-07-07T01:30:17.775Z,0
2017-07-07T01:31:17.455Z,0
2017-07-07T01:32:17.434Z,0
2017-07-07T01:33:17.719Z,0
2017-07-07T01:34:18.005Z,0
2017-07-07T01:35:17.987Z,0
2017-07-07T01:36:17.965Z,0
2017-07-07T01:37:17.334Z,0
2017-07-07T01:38:17.928Z,0
2017-07-07T01:39:17.907Z,0
2017-07-07T01:40:17.886Z,0
2017-07-07T01:41:17.560Z,0
2017-07-07T01:42:17.845Z,0
2017-07-07T01:43:17.531Z,0
2017-07-07T01:44:17.811Z,0
2017-07-07T01:45:17.487Z,0
2017-07-07T01:46:17.465Z,0
2017-07-07T01:47:17.448Z,0
2017-07-07T01:48:17.458Z,0
2017-07-07T01:49:17.107Z,0
2017-07-07T01:50:17.390Z,0
2017-07-07T01:51:17.674Z,0
2017-07-07T01:52:17.659Z,0
2017-07-07T01:53:17.638Z,0
2017-07-07T01:54:17.617Z,0
2017-07-07T01:55:17.605Z,0
2017-07-07T01:56:17.579Z,0
2017-07-07T01:57:17.258Z,0
2017-07-07T01:58:17.544Z,0
2017-07-07T01:59:17.518Z,0
2017-07-07T02:00:17.653Z,0
2017-07-07T02:01:17.483Z,0
2017-07-07T02:02:17.463Z,0
2017-07-07T02:03:17.441Z,0
2017-07-07T02:04:17.428Z,0
2017-07-07T02:05:17.098Z,0
2017-07-07T02:06:17.388Z,0
2017-07-07T02:07:16.756Z,0
2017-07-07T02:08:17.043Z,0
2017-07-07T02:09:17.324Z,0
2017-07-07T02:10:17.004Z,0
2017-07-07T02:11:17.293Z,0
2017-07-07T02:12:16.967Z,0
2017-07-07T02:13:17.250Z,0
2017-07-07T02:14:16.928Z,0
2017-07-07T02:15:17.211Z,0
2017-07-07T02:16:16.888Z,0
2017-07-07T02:17:16.570Z,0
2017-07-07T02:18:16.847Z,0
2017-07-07T02:19:16.530Z,0
2017-07-07T02:20:17.112Z,0
2017-07-07T02:21:16.490Z,0
2017-07-07T02:22:16.825Z,0
2017-07-07T02:23:16.775Z,0
2017-07-07T02:24:17.036Z,0
2017-07-07T02:25:17.020Z,0
2017-07-07T02:26:17.015Z,0
2017-07-07T02:27:16.976Z,0
2017-07-07T02:28:16.960Z,0
2017-07-07T02:29:16.938Z,0
2017-07-07T02:30:16.615Z,0
2017-07-07T02:31:15.987Z,0
2017-07-07T02:32:16.634Z,0
2017-07-07T02:33:16.613Z,0
2017-07-07T02:34:16.848Z,0
2017-07-07T02:35:16.825Z,0
2017-07-07T02:36:16.800Z,4
2017-07-07T02:37:16.175Z,4
2017-07-07T02:38:16.461Z,4
2017-07-07T02:39:16.748Z,4
2017-07-07T02:40:16.725Z,4
2017-07-07T02:41:16.400Z,4
2017-07-07T02:42:16.689Z,0
2017-07-07T02:43:16.670Z,4
2017-07-07T02:44:16.037Z,4
2017-07-07T02:45:16.627Z,4
2017-07-07T02:46:16.605Z,0
2017-07-07T02:47:16.591Z,4
2017-07-07T02:48:16.572Z,4
2017-07-07T02:49:16.554Z,4
2017-07-07T02:50:16.529Z,8
2017-07-07T02:51:16.206Z,8
2017-07-07T02:52:16.487Z,12
2017-07-07T02:53:16.167Z,12
2017-07-07T02:54:16.153Z,16
2017-07-07T02:55:16.433Z,16
2017-07-07T02:56:16.111Z,20
2017-07-07T02:57:16.388Z,20
2017-07-07T02:58:16.376Z,20
2017-07-07T02:59:15.446Z,20
2017-07-07T03:00:16.336Z,28
2017-07-07T03:01:16.319Z,28
2017-07-07T03:02:16.302Z,36
2017-07-07T03:03:15.977Z,40
2017-07-07T03:04:15.955Z,48
2017-07-07T03:05:16.240Z,56
2017-07-07T03:06:16.222Z,60
2017-07-07T03:07:16.210Z,68
2017-07-07T03:08:16.182Z,76
2017-07-07T03:09:16.165Z,80
2017-07-07T03:10:16.141Z,88
2017-07-07T03:11:15.814Z,100
2017-07-07T03:12:15.496Z,108
2017-07-07T03:13:15.780Z,124
2017-07-07T03:14:15.764Z,132
2017-07-07T03:15:16.049Z,144
2017-07-07T03:16:15.716Z,160
2017-07-07T03:17:16.004Z,176
2017-07-07T03:18:15.990Z,200
2017-07-07T03:19:15.668Z,216
2017-07-07T03:20:15.951Z,244
2017-07-07T03:21:15.625Z,264
2017-07-07T03:22:15.296Z,284
2017-07-07T03:23:14.972Z,300
2017-07-07T03:24:14.952Z,316
2017-07-07T03:25:15.543Z,336
2017-07-07T03:26:15.219Z,348
2017-07-07T03:27:15.503Z,368
2017-07-07T03:28:15.786Z,376
2017-07-07T03:29:15.780Z,384
2017-07-07T03:30:15.444Z,400
2017-07-07T03:31:15.730Z,424
2017-07-07T03:32:15.406Z,460
2017-07-07T03:33:15.087Z,492
2017-07-07T03:34:15.368Z,536
2017-07-07T03:35:15.347Z,580
2017-07-07T03:36:15.632Z,628
2017-07-07T03:37:15.615Z,664
2017-07-07T03:38:15.292Z,688
2017-07-07T03:39:15.574Z,696
2017-07-07T03:40:15.250Z,676
2017-07-07T03:41:15.228Z,644
2017-07-07T03:42:15.512Z,592
2017-07-07T03:43:15.495Z,524
2017-07-07T03:44:15.170Z,452
2017-07-07T03:45:14.845Z,428
2017-07-07T03:46:15.130Z,440
2017-07-07T03:47:15.109Z,472
2017-07-07T03:48:15.094Z,520
2017-07-07T03:49:15.377Z,600
2017-07-07T03:50:15.053Z,732
2017-07-07T03:51:15.040Z,924
2017-07-07T03:52:15.018Z,1124
2017-07-07T03:53:14.996Z,1276
2017-07-07T03:54:15.277Z,1400
2017-07-07T03:55:14.649Z,1508
2017-07-07T03:56:14.940Z,1608
2017-07-07T03:57:14.919Z,1712
2017-07-07T03:58:14.595Z,1816
2017-07-07T03:59:14.883Z,1928
2017-07-07T04:00:15.163Z,2024
2017-07-07T04:01:15.140Z,2148
2017-07-07T04:02:15.125Z,2284
2017-07-07T04:03:15.108Z,2440
2017-07-07T04:04:14.783Z,2580
2017-07-07T04:05:14.454Z,2676
2017-07-07T04:06:14.435Z,2740
2017-07-07T04:07:15.027Z,2800
2017-07-07T04:08:15.008Z,2844
2017-07-07T04:09:14.988Z,2888
2017-07-07T04:10:14.673Z,2940
2017-07-07T04:11:14.642Z,2992
2017-07-07T04:12:14.797Z,3000
2017-07-07T04:13:14.918Z,2956
2017-07-07T04:14:14.286Z,2916
2017-07-07T04:15:14.878Z,2880
2017-07-07T04:16:14.552Z,2864
2017-07-07T04:17:14.223Z,2852
2017-07-07T04:18:14.867Z,2856
2017-07-07T04:19:14.492Z,2856
2017-07-07T04:20:14.484Z,2924
2017-07-07T04:21:14.763Z,3084
2017-07-07T04:22:14.128Z,3252
2017-07-07T04:23:13.809Z,3416
2017-07-07T04:24:14.403Z,3612
2017-07-07T04:25:14.684Z,3824
2017-07-07T04:26:14.357Z,4072
2017-07-07T04:27:14.338Z,4324
2017-07-07T04:28:14.631Z,4580
2017-07-07T04:29:14.379Z,4772
2017-07-07T04:30:14.596Z,4964
2017-07-07T04:31:14.568Z,5140
2017-07-07T04:32:13.637Z,5288
2017-07-07T04:33:14.538Z,5440
2017-07-07T04:34:14.514Z,5616
2017-07-07T04:35:14.193Z,5788
2017-07-07T04:36:14.170Z,5996
2017-07-07T04:37:14.148Z,6184
2017-07-07T04:38:14.436Z,6316
2017-07-07T04:39:14.424Z,6412
2017-07-07T04:40:13.794Z,6536
2017-07-07T04:41:13.467Z,6544
2017-07-07T04:42:13.758Z,6400
2017-07-07T04:43:13.737Z,6372
2017-07-07T04:44:14.020Z,6308
2017-07-07T04:45:14.008Z,6240
2017-07-07T04:46:13.989Z,6260
2017-07-07T04:47:13.972Z,6316
2017-07-07T04:48:13.949Z,6440
2017-07-07T04:49:14.247Z,6564
2017-07-07T04:50:13.913Z,6688
2017-07-07T04:51:13.908Z,6796
2017-07-07T04:52:14.186Z,6936
2017-07-07T04:53:14.166Z,6972
2017-07-07T04:54:14.208Z,6856
2017-07-07T04:55:13.824Z,6860
2017-07-07T04:56:14.114Z,6820
2017-07-07T04:57:14.091Z,6768
2017-07-07T04:58:13.772Z,6736
2017-07-07T04:59:14.060Z,6728
2017-07-07T05:00:14.047Z,6792
2017-07-07T05:01:14.021Z,6848
2017-07-07T05:02:14.009Z,6908
2017-07-07T05:03:13.986Z,6776
2017-07-07T05:04:13.054Z,6560
2017-07-07T05:05:13.649Z,6728
2017-07-07T05:06:13.943Z,6732
2017-07-07T05:07:13.915Z,6728
2017-07-07T05:08:13.895Z,7116
2017-07-07T05:09:13.878Z,7156
2017-07-07T05:10:14.010Z,7852
2017-07-07T05:11:13.843Z,8336
2017-07-07T05:12:13.832Z,9148
2017-07-07T05:13:13.501Z,10220
2017-07-07T05:14:13.791Z,11204
2017-07-07T05:15:13.470Z,11744
2017-07-07T05:16:13.752Z,12184
2017-07-07T05:17:13.128Z,12224
2017-07-07T05:18:13.110Z,11912
2017-07-07T05:19:13.096Z,11488
2017-07-07T05:20:13.073Z,10980
2017-07-07T05:21:13.061Z,10436
2017-07-07T05:22:13.040Z,9244
2017-07-07T05:23:12.719Z,9592
2017-07-07T05:24:13.615Z,8976
2017-07-07T05:25:12.987Z,8844
2017-07-07T05:26:12.971Z,9420
2017-07-07T05:27:13.567Z,7732
2017-07-07T05:28:13.547Z,7060
2017-07-07T05:29:13.525Z,7168
2017-07-07T05:30:13.513Z,6908
2017-07-07T05:31:12.890Z,7380
2017-07-07T05:32:13.479Z,7788
2017-07-07T05:33:13.159Z,9492
2017-07-07T05:34:12.836Z,9216
2017-07-07T05:35:13.124Z,14972
2017-07-07T05:36:13.104Z,13088
2017-07-07T05:37:13.098Z,12008
2017-07-07T05:38:13.436Z,11996
2017-07-07T05:39:13.358Z,13252
2017-07-07T05:40:13.340Z,13476
2017-07-07T05:41:13.020Z,14356
2017-07-07T05:42:13.309Z,14032
2017-07-07T05:43:13.297Z,14464
2017-07-07T05:44:13.279Z,14816
2017-07-07T05:45:13.261Z,15364
2017-07-07T05:46:12.943Z,14508
2017-07-07T05:47:13.227Z,12208
2017-07-07T05:48:12.909Z,11848
2017-07-07T05:49:13.196Z,11588
2017-07-07T05:50:12.872Z,11588
2017-07-07T05:51:12.860Z,11904
2017-07-07T05:52:13.155Z,12544
2017-07-07T05:53:13.183Z,13072
2017-07-07T05:54:13.129Z,14168
2017-07-07T05:55:12.801Z,15276
2017-07-07T05:56:12.782Z,16232
2017-07-07T05:57:12.768Z,17664
2017-07-07T05:58:12.751Z,18624
2017-07-07T05:59:13.036Z,18912
2017-07-07T06:00:13.024Z,18624
2017-07-07T06:01:12.754Z,18336
2017-07-07T06:02:12.694Z,17568
2017-07-07T06:03:12.975Z,16584
2017-07-07T06:04:12.964Z,15940
2017-07-07T06:05:13.205Z,15276
2017-07-07T06:06:12.629Z,14664
2017-07-07T06:07:12.924Z,14216
2017-07-07T06:08:12.905Z,13936
2017-07-07T06:09:12.885Z,13640
2017-07-07T06:10:12.872Z,13468
2017-07-07T06:11:12.857Z,13292
2017-07-07T06:12:12.535Z,13356
2017-07-07T06:13:12.521Z,13536
2017-07-07T06:14:12.814Z,13604
2017-07-07T06:15:12.798Z,13476
2017-07-07T06:16:12.778Z,13144
2017-07-07T06:17:12.764Z,13012
2017-07-07T06:18:12.756Z,12888
2017-07-07T06:19:12.490Z,12976
2017-07-07T06:20:12.727Z,13092
2017-07-07T06:21:12.404Z,13748
2017-07-07T06:22:12.079Z,14248
2017-07-07T06:23:11.760Z,14572
2017-07-07T06:24:12.845Z,13724
2017-07-07T06:25:12.714Z,13896
2017-07-07T06:26:13.293Z,19296
2017-07-07T06:27:12.776Z,16064
2017-07-07T06:28:11.992Z,21696
2017-07-07T06:29:12.283Z,39360
2017-07-07T06:30:12.270Z,36640
2017-07-07T06:31:12.564Z,28480
2017-07-07T06:32:11.938Z,37472
2017-07-07T06:33:12.225Z,40384
2017-07-07T06:34:13.025Z,37024
2017-07-07T06:35:12.494Z,36256
2017-07-07T06:36:12.190Z,21024
2017-07-07T06:37:11.560Z,17768
2017-07-07T06:38:11.544Z,26496
2017-07-07T06:39:12.142Z,16040
2017-07-07T06:40:12.177Z,30208
2017-07-07T06:41:13.344Z,34944
2017-07-07T06:42:12.941Z,29312
2017-07-07T06:43:12.396Z,29056
2017-07-07T06:44:12.388Z,27488
2017-07-07T06:45:12.364Z,30240
2017-07-07T06:46:12.353Z,37344
2017-07-07T06:47:12.036Z,24544
2017-07-07T06:48:12.333Z,18536
2017-07-07T06:49:12.400Z,28544
2017-07-07T06:50:12.001Z,27232
2017-07-07T06:51:12.296Z,26720
2017-07-07T06:52:12.076Z,27136
2017-07-07T06:53:11.966Z,29184
2017-07-07T06:54:11.950Z,34528
2017-07-07T06:55:11.937Z,35872
2017-07-07T06:56:13.261Z,34880
2017-07-07T06:57:13.074Z,34176
2017-07-07T06:58:12.758Z,35872
2017-07-07T06:59:12.009Z,35872
2017-07-07T07:00:12.633Z,37184
2017-07-07T07:01:12.240Z,38304
2017-07-07T07:02:12.283Z,37408
2017-07-07T07:03:12.382Z,36032
2017-07-07T07:04:12.142Z,36544
2017-07-07T07:05:11.215Z,38688
2017-07-07T07:06:12.064Z,39200
2017-07-07T07:07:12.232Z,38624
2017-07-07T07:08:12.288Z,39328
2017-07-07T07:09:12.897Z,38144
2017-07-07T07:10:12.076Z,38336
2017-07-07T07:11:11.756Z,38368
2017-07-07T07:12:12.051Z,38592
2017-07-07T07:13:12.038Z,37952
2017-07-07T07:14:11.725Z,39488
2017-07-07T07:15:12.018Z,39520
2017-07-07T07:16:12.016Z,39072
2017-07-07T07:17:11.862Z,39424
2017-07-07T07:18:11.984Z,41312
2017-07-07T07:19:11.680Z,41920
2017-07-07T07:20:11.972Z,42848
2017-07-07T07:21:11.350Z,42464
2017-07-07T07:22:11.333Z,41824
2017-07-07T07:23:11.320Z,41728
2017-07-07T07:24:11.619Z,41152
2017-07-07T07:25:11.608Z,43616
2017-07-07T07:26:11.290Z,44832
2017-07-07T07:27:11.906Z,44992
2017-07-07T07:28:11.576Z,46112
2017-07-07T07:29:11.871Z,44704
2017-07-07T07:30:11.865Z,44896
2017-07-07T07:31:11.853Z,47296
2017-07-07T07:32:11.841Z,47232
2017-07-07T07:33:11.832Z,47104
2017-07-07T07:34:11.550Z,48704
2017-07-07T07:35:11.809Z,49216
2017-07-07T07:36:11.805Z,51008
2017-07-07T07:37:11.793Z,49856
2017-07-07T07:38:11.173Z,49952
2017-07-07T07:39:11.830Z,49952
2017-07-07T07:40:11.788Z,48448
2017-07-07T07:41:11.444Z,49536
2017-07-07T07:42:11.744Z,50816
2017-07-07T07:43:11.805Z,51648
2017-07-07T07:44:12.062Z,51296
2017-07-07T07:45:11.692Z,51904
2017-07-07T07:46:11.985Z,53504
2017-07-07T07:47:11.136Z,51680
2017-07-07T07:48:11.462Z,51040
2017-07-07T07:49:11.689Z,49696
2017-07-07T07:50:11.672Z,47968
2017-07-07T07:51:11.667Z,49184
2017-07-07T07:52:11.345Z,50368
2017-07-07T07:53:11.649Z,50240
2017-07-07T07:54:11.027Z,52576
2017-07-07T07:55:11.323Z,52160
2017-07-07T07:56:11.513Z,52224
2017-07-07T07:57:11.611Z,53408
2017-07-07T07:58:11.594Z,52928
2017-07-07T07:59:11.659Z,53088
2017-07-07T08:00:11.894Z,54880
2017-07-07T08:01:10.796Z,56352
2017-07-07T08:02:11.898Z,55584
2017-07-07T08:03:10.952Z,57888
2017-07-07T08:04:11.248Z,56640
2017-07-07T08:05:11.238Z,54368
2017-07-07T08:06:11.227Z,55424
2017-07-07T08:07:11.538Z,57856
2017-07-07T08:08:11.519Z,58592
2017-07-07T08:09:11.214Z,59008
2017-07-07T08:10:11.089Z,59232
2017-07-07T08:11:11.841Z,60064
2017-07-07T08:12:11.494Z,59520
2017-07-07T08:13:11.259Z,61504
2017-07-07T08:14:11.151Z,61728
2017-07-07T08:15:11.165Z,59264
2017-07-07T08:16:11.466Z,61984
2017-07-07T08:17:11.149Z,64064
2017-07-07T08:18:10.834Z,63136
2017-07-07T08:19:10.524Z,63872
2017-07-07T08:20:10.822Z,64448
2017-07-07T08:21:11.454Z,63776
2017-07-07T08:22:11.415Z,65024
2017-07-07T08:23:10.497Z,66656
2017-07-07T08:24:11.110Z,68384
2017-07-07T08:25:11.089Z,68768
2017-07-07T08:26:10.474Z,65920
2017-07-07T08:27:11.074Z,65856
2017-07-07T08:28:10.766Z,63136
2017-07-07T08:29:11.067Z,61888
2017-07-07T08:30:11.061Z,64256
2017-07-07T08:31:10.758Z,64864
2017-07-07T08:32:11.047Z,68064
2017-07-07T08:33:10.740Z,67104
2017-07-07T08:34:11.337Z,64352
2017-07-07T08:35:11.333Z,67456
2017-07-07T08:36:11.329Z,68992
2017-07-07T08:37:11.015Z,69472
2017-07-07T08:38:11.315Z,70432
2017-07-07T08:39:11.007Z,71296
2017-07-07T08:40:11.000Z,71488
2017-07-07T08:41:10.690Z,71584
2017-07-07T08:42:11.292Z,71328
2017-07-07T08:43:11.293Z,73120
2017-07-07T08:44:10.973Z,74464
2017-07-07T08:45:10.669Z,75136
2017-07-07T08:46:10.663Z,74976
2017-07-07T08:47:11.268Z,60352
2017-07-07T08:48:11.498Z,59296
2017-07-07T08:49:11.257Z,67808
2017-07-07T08:50:10.645Z,75680
2017-07-07T08:51:10.334Z,76128
2017-07-07T08:52:10.631Z,75488
2017-07-07T08:53:10.624Z,47936
2017-07-07T08:54:10.619Z,71584
2017-07-07T08:55:10.619Z,74048
2017-07-07T08:56:10.913Z,74240
2017-07-07T08:57:11.218Z,75712
2017-07-07T08:58:10.741Z,73632
2017-07-07T08:59:12.043Z,73632
2017-07-07T09:00:12.195Z,73408
2017-07-07T09:01:11.518Z,40384
2017-07-07T09:02:11.186Z,71552
2017-07-07T09:03:10.713Z,71296
2017-07-07T09:04:10.573Z,55904
2017-07-07T09:05:10.565Z,60960
2017-07-07T09:06:10.871Z,62144
2017-07-07T09:07:10.862Z,70752
2017-07-07T09:08:10.861Z,75168
2017-07-07T09:09:10.855Z,74656
2017-07-07T09:10:11.022Z,77440
2017-07-07T09:11:10.850Z,81696
2017-07-07T09:12:10.841Z,81216
2017-07-07T09:13:10.833Z,73696
2017-07-07T09:14:10.852Z,68160
2017-07-07T09:15:11.142Z,63168
2017-07-07T09:16:10.829Z,71648
2017-07-07T09:17:10.892Z,65184
2017-07-07T09:18:10.433Z,72704
2017-07-07T09:19:10.813Z,60160
2017-07-07T09:20:10.814Z,80224
2017-07-07T09:21:10.806Z,77472
2017-07-07T09:22:10.800Z,77728
2017-07-07T09:23:10.189Z,77248
2017-07-07T09:24:11.105Z,76896
2017-07-07T09:25:11.097Z,81504
2017-07-07T09:26:10.791Z,86144
2017-07-07T09:27:10.837Z,88096
2017-07-07T09:28:10.480Z,80320
2017-07-07T09:29:11.085Z,78880
2017-07-07T09:30:10.791Z,67520
2017-07-07T09:31:10.833Z,46592
2017-07-07T09:32:10.780Z,54144
2017-07-07T09:33:10.769Z,68288
2017-07-07T09:34:10.767Z,77248
2017-07-07T09:35:10.765Z,60288
2017-07-07T09:36:10.762Z,57600
2017-07-07T09:37:11.062Z,71616
2017-07-07T09:38:10.755Z,77696
2017-07-07T09:39:11.057Z,74784
2017-07-07T09:40:10.746Z,79168
2017-07-07T09:41:11.061Z,80704
2017-07-07T09:42:10.741Z,71424
2017-07-07T09:43:11.034Z,81696
2017-07-07T09:44:10.731Z,77952
2017-07-07T09:45:10.120Z,81920
2017-07-07T09:46:11.027Z,78592
2017-07-07T09:47:10.724Z,79808
2017-07-07T09:48:11.021Z,83904
2017-07-07T09:49:10.715Z,68448
2017-07-07T09:50:10.408Z,57088
2017-07-07T09:51:10.721Z,41696
2017-07-07T09:52:10.403Z,36608
2017-07-07T09:53:10.707Z,53184
2017-07-07T09:54:10.394Z,58912
2017-07-07T09:55:10.699Z,60256
2017-07-07T09:56:10.384Z,68256
2017-07-07T09:57:10.691Z,72160
2017-07-07T09:58:10.683Z,71616
2017-07-07T09:59:10.377Z,72672
2017-07-07T10:00:10.978Z,79840
2017-07-07T10:01:10.678Z,80800
2017-07-07T10:02:10.997Z,80544
2017-07-07T10:03:10.664Z,80224
2017-07-07T10:04:10.657Z,84320
2017-07-07T10:05:10.956Z,88448
2017-07-07T10:06:10.649Z,88800
2017-07-07T10:07:10.769Z,70560
2017-07-07T10:08:10.758Z,66912
2017-07-07T10:09:10.639Z,81312
2017-07-07T10:10:10.906Z,74752
2017-07-07T10:11:10.338Z,69632
2017-07-07T10:12:10.938Z,70816
2017-07-07T10:13:10.931Z,76800
2017-07-07T10:14:10.620Z,78240
2017-07-07T10:15:10.934Z,74144
2017-07-07T10:16:10.617Z,72480
2017-07-07T10:17:10.613Z,74528
2017-07-07T10:18:10.610Z,74656
2017-07-07T10:19:11.256Z,78208
2017-07-07T10:20:10.904Z,79424
2017-07-07T10:21:10.602Z,77152
2017-07-07T10:22:10.596Z,73952
2017-07-07T10:23:10.326Z,74560
2017-07-07T10:24:11.090Z,72608
2017-07-07T10:25:10.594Z,65120
2017-07-07T10:26:10.282Z,62720
2017-07-07T10:27:10.278Z,43264
2017-07-07T10:28:09.971Z,32032
2017-07-07T10:29:10.877Z,32384
2017-07-07T10:30:10.276Z,34208
2017-07-07T10:31:10.565Z,56512
2017-07-07T10:32:10.564Z,81536
2017-07-07T10:33:10.870Z,89440
2017-07-07T10:34:10.554Z,89600
2017-07-07T10:35:10.251Z,99264
2017-07-07T10:36:10.247Z,93120
2017-07-07T10:37:10.243Z,67616
2017-07-07T10:38:10.547Z,79808
2017-07-07T10:39:10.233Z,87296
2017-07-07T10:40:10.539Z,71264
2017-07-07T10:41:10.835Z,74912
2017-07-07T10:42:10.831Z,76352
2017-07-07T10:43:10.529Z,67680
2017-07-07T10:44:10.823Z,65440
2017-07-07T10:45:10.820Z,62816
2017-07-07T10:46:10.512Z,61440
2017-07-07T10:47:10.810Z,58432
2017-07-07T10:48:10.505Z,65568
2017-07-07T10:49:10.207Z,37184
2017-07-07T10:50:10.507Z,61088
2017-07-07T10:51:11.616Z,71584
2017-07-07T10:52:10.196Z,75648
2017-07-07T10:53:10.851Z,78848
2017-07-07T10:54:10.488Z,63616
2017-07-07T10:55:10.790Z,26912
2017-07-07T10:56:10.781Z,51648
2017-07-07T10:57:10.219Z,80192
2017-07-07T10:58:10.475Z,87232
2017-07-07T10:59:10.166Z,38176
2017-07-07T11:00:10.463Z,67808
2017-07-07T11:01:10.462Z,69664
2017-07-07T11:02:10.756Z,78816
2017-07-07T11:03:10.455Z,60768
2017-07-07T11:04:10.756Z,49248
2017-07-07T11:05:10.442Z,39488
2017-07-07T11:06:10.143Z,37952
2017-07-07T11:07:10.381Z,64000
2017-07-07T11:08:10.733Z,74784
2017-07-07T11:09:10.430Z,88640
2017-07-07T11:10:10.426Z,94080
2017-07-07T11:11:09.814Z,90880
2017-07-07T11:12:10.413Z,71616
2017-07-07T11:13:10.414Z,40160
2017-07-07T11:14:10.415Z,27616
2017-07-07T11:15:10.101Z,69888
2017-07-07T11:16:10.398Z,39680
2017-07-07T11:17:10.395Z,59936
2017-07-07T11:18:10.391Z,91136
2017-07-07T11:19:10.387Z,49728
2017-07-07T11:20:09.774Z,63456
2017-07-07T11:21:10.681Z,43328
2017-07-07T11:22:10.370Z,73120
2017-07-07T11:23:10.065Z,87232
2017-07-07T11:24:10.670Z,70624
2017-07-07T11:25:10.365Z,31712
2017-07-07T11:26:10.355Z,30528
2017-07-07T11:27:10.353Z,39264
2017-07-07T11:28:10.655Z,48736
2017-07-07T11:29:10.345Z,43296
2017-07-07T11:30:10.650Z,37152
2017-07-07T11:31:10.031Z,42912
2017-07-07T11:32:10.340Z,34208
2017-07-07T11:33:10.324Z,39648
2017-07-07T11:34:10.320Z,56256
2017-07-07T11:35:10.312Z,41824
2017-07-07T11:36:10.372Z,33376
2017-07-07T11:37:10.301Z,31424
2017-07-07T11:38:10.605Z,29888
2017-07-07T11:39:10.290Z,33472
2017-07-07T11:40:10.285Z,32416
2017-07-07T11:41:09.974Z,36096
2017-07-07T11:42:10.274Z,30208
2017-07-07T11:43:10.569Z,31712
2017-07-07T11:44:10.265Z,21856
2017-07-07T11:45:10.561Z,49472
2017-07-07T11:46:10.242Z,35424
2017-07-07T11:47:10.236Z,52320
2017-07-07T11:48:10.228Z,76864
2017-07-07T11:49:10.226Z,77888
2017-07-07T11:50:10.214Z,76256
2017-07-07T11:51:09.918Z,72768
2017-07-07T11:52:10.507Z,77280
2017-07-07T11:53:10.197Z,81856
2017-07-07T11:54:10.492Z,80800
2017-07-07T11:55:09.874Z,84224
2017-07-07T11:56:10.174Z,79296
2017-07-07T11:57:09.865Z,84480
2017-07-07T11:58:10.476Z,80832
2017-07-07T11:59:10.168Z,79104
2017-07-07T12:00:10.412Z,76768
2017-07-07T12:01:09.849Z,27200
2017-07-07T12:02:09.848Z,76384
2017-07-07T12:03:10.150Z,79072
2017-07-07T12:04:10.141Z,80608
2017-07-07T12:05:10.141Z,82368
2017-07-07T12:06:10.849Z,79360
2017-07-07T12:07:09.827Z,72448
2017-07-07T12:08:09.828Z,76928
2017-07-07T12:09:09.826Z,82432
2017-07-07T12:10:09.840Z,79040
2017-07-07T12:11:09.815Z,80800
2017-07-07T12:12:09.815Z,85024
2017-07-07T12:13:09.810Z,80544
2017-07-07T12:14:09.807Z,64032
2017-07-07T12:15:09.805Z,86176
2017-07-07T12:16:09.803Z,81920
2017-07-07T12:17:09.801Z,78080
2017-07-07T12:18:10.406Z,78912
2017-07-07T12:19:10.105Z,82400
2017-07-07T12:20:09.792Z,71072
2017-07-07T12:21:09.793Z,64768
2017-07-07T12:22:09.791Z,72672
2017-07-07T12:23:09.788Z,77280
2017-07-07T12:24:10.096Z,79616
2017-07-07T12:25:10.402Z,84800
2017-07-07T12:26:09.790Z,86304
2017-07-07T12:27:09.791Z,80128
2017-07-07T12:28:10.411Z,75680
2017-07-07T12:29:10.085Z,85376
2017-07-07T12:30:10.088Z,22656
2017-07-07T12:31:10.089Z,34176
2017-07-07T12:32:09.779Z,80480
2017-07-07T12:33:10.085Z,81632
2017-07-07T12:34:09.776Z,79104
2017-07-07T12:35:10.090Z,79104
2017-07-07T12:36:09.786Z,77824
2017-07-07T12:37:09.784Z,73440
2017-07-07T12:38:09.773Z,29120
2017-07-07T12:39:10.078Z,80384
2017-07-07T12:40:10.079Z,79040
2017-07-07T12:41:10.381Z,74784
2017-07-07T12:42:09.769Z,82816
2017-07-07T12:43:09.766Z,82848
2017-07-07T12:44:09.766Z,85344
2017-07-07T12:45:09.791Z,86080
2017-07-07T12:46:09.763Z,86976
2017-07-07T12:47:09.768Z,88672
2017-07-07T12:48:10.069Z,87392
2017-07-07T12:49:09.762Z,84896
2017-07-07T12:50:09.813Z,92448
2017-07-07T12:51:09.762Z,85472
2017-07-07T12:52:10.375Z,80608
2017-07-07T12:53:10.369Z,86048
2017-07-07T12:54:10.380Z,83616
2017-07-07T12:55:09.771Z,80448
2017-07-07T12:56:10.374Z,84192
2017-07-07T12:57:09.767Z,82304
2017-07-07T12:58:10.068Z,80704
2017-07-07T12:59:10.373Z,78176
2017-07-07T13:00:10.084Z,88800
2017-07-07T13:01:10.070Z,93440
2017-07-07T13:02:10.071Z,88736
2017-07-07T13:03:10.371Z,68000
2017-07-07T13:04:10.070Z,94592
2017-07-07T13:05:10.129Z,68064
2017-07-07T13:06:09.766Z,80096
2017-07-07T13:07:10.070Z,95488
2017-07-07T13:08:10.067Z,94784
2017-07-07T13:09:10.074Z,47328
2017-07-07T13:10:10.228Z,33728
2017-07-07T13:11:09.959Z,24992
2017-07-07T13:12:10.064Z,22528
2017-07-07T13:13:10.514Z,27040
2017-07-07T13:14:10.366Z,87808
2017-07-07T13:15:10.062Z,92672
2017-07-07T13:16:09.843Z,84992
2017-07-07T13:17:10.068Z,87680
2017-07-07T13:18:09.752Z,87104
2017-07-07T13:19:10.356Z,89120
2017-07-07T13:20:10.051Z,91520
2017-07-07T13:21:10.054Z,82688
2017-07-07T13:22:09.740Z,81248